sensor_id;sensor_type;location;lat;lon;timestamp;P1;durP1;ratioP1;P2;durP2;ratioP2
8048;SDS011;20935;42.660;23.342;2023-04-25T00:02:15;5.27;;;4.77;;
8048;SDS011;20935;42.660;23.342;2023-04-25T00:05:02;5.27;;;4.77;;
8048;SDS011;20935;42.660;23.342;2023-04-25T00:07:48;4.73;;;4.23;;
8048;SDS011;20935;42.660;23.342;2023-04-25T00:10:34;4.90;;;4.50;;
8048;SDS011;20935;42.660;23.342;2023-04-25T00:13:19;6.53;;;5.13;;
8048;SDS011;20935;42.660;23.342;2023-04-25T00:16:05;8.73;;;6.37;;
8048;SDS011;20935;42.660;23.342;2023-04-25T00:18:51;8.03;;;5.93;;
8048;SDS011;20935;42.660;23.342;2023-04-25T00:21:39;6.60;;;6.00;;
8048;SDS011;20935;42.660;23.342;2023-04-25T00:24:25;7.07;;;5.70;;
8048;SDS011;20935;42.660;23.342;2023-04-25T00:27:10;6.43;;;5.93;;
8048;SDS011;20935;42.660;23.342;2023-04-25T00:29:56;6.53;;;5.77;;
8048;SDS011;20935;42.660;23.342;2023-04-25T00:32:41;8.33;;;5.90;;
8048;SDS011;20935;42.660;23.342;2023-04-25T00:35:27;6.97;;;5.80;;
8048;SDS011;20935;42.660;23.342;2023-04-25T00:38:14;6.73;;;6.13;;
8048;SDS011;20935;42.660;23.342;2023-04-25T00:40:59;6.33;;;5.73;;
8048;SDS011;20935;42.660;23.342;2023-04-25T00:43:45;7.00;;;6.20;;
8048;SDS011;20935;42.660;23.342;2023-04-25T00:46:32;6.37;;;5.70;;
8048;SDS011;20935;42.660;23.342;2023-04-25T00:49:18;7.27;;;6.30;;
8048;SDS011;20935;42.660;23.342;2023-04-25T00:52:03;6.37;;;5.77;;
8048;SDS011;20935;42.660;23.342;2023-04-25T00:54:50;6.70;;;6.00;;
8048;SDS011;20935;42.660;23.342;2023-04-25T00:57:36;7.17;;;5.87;;
8048;SDS011;20935;42.660;23.342;2023-04-25T01:00:22;7.13;;;5.93;;
8048;SDS011;20935;42.660;23.342;2023-04-25T01:03:07;10.23;;;7.10;;
8048;SDS011;20935;42.660;23.342;2023-04-25T01:05:53;9.00;;;6.73;;
8048;SDS011;20935;42.660;23.342;2023-04-25T01:08:40;8.40;;;6.90;;
8048;SDS011;20935;42.660;23.342;2023-04-25T01:11:27;7.20;;;6.07;;
8048;SDS011;20935;42.660;23.342;2023-04-25T01:14:12;8.30;;;6.53;;
8048;SDS011;20935;42.660;23.342;2023-04-25T01:16:57;6.83;;;6.13;;
8048;SDS011;20935;42.660;23.342;2023-04-25T01:19:43;7.87;;;6.33;;
8048;SDS011;20935;42.660;23.342;2023-04-25T01:22:31;7.77;;;6.53;;
8048;SDS011;20935;42.660;23.342;2023-04-25T01:25:16;6.07;;;5.23;;
8048;SDS011;20935;42.660;23.342;2023-04-25T01:28:02;5.80;;;5.27;;
8048;SDS011;20935;42.660;23.342;2023-04-25T01:30:47;6.03;;;5.37;;
8048;SDS011;20935;42.660;23.342;2023-04-25T01:33:32;6.40;;;5.80;;
8048;SDS011;20935;42.660;23.342;2023-04-25T01:36:18;9.17;;;5.17;;
8048;SDS011;20935;42.660;23.342;2023-04-25T01:39:05;5.30;;;4.80;;
8048;SDS011;20935;42.660;23.342;2023-04-25T01:41:50;6.53;;;5.57;;
8048;SDS011;20935;42.660;23.342;2023-04-25T01:44:36;6.57;;;5.03;;
8048;SDS011;20935;42.660;23.342;2023-04-25T01:47:21;7.27;;;6.03;;
8048;SDS011;20935;42.660;23.342;2023-04-25T01:50:07;6.97;;;5.20;;
8048;SDS011;20935;42.660;23.342;2023-04-25T01:52:53;6.50;;;5.43;;
8048;SDS011;20935;42.660;23.342;2023-04-25T01:55:41;9.13;;;6.20;;
8048;SDS011;20935;42.660;23.342;2023-04-25T01:58:27;7.07;;;6.37;;
8048;SDS011;20935;42.660;23.342;2023-04-25T02:01:12;7.10;;;6.40;;
8048;SDS011;20935;42.660;23.342;2023-04-25T02:03:58;6.13;;;5.27;;
8048;SDS011;20935;42.660;23.342;2023-04-25T02:06:43;6.77;;;6.00;;
8048;SDS011;20935;42.660;23.342;2023-04-25T02:09:29;6.60;;;5.97;;
8048;SDS011;20935;42.660;23.342;2023-04-25T02:12:16;6.97;;;6.27;;
8048;SDS011;20935;42.660;23.342;2023-04-25T02:15:01;6.97;;;6.27;;
8048;SDS011;20935;42.660;23.342;2023-04-25T02:17:47;6.90;;;6.20;;
8048;SDS011;20935;42.660;23.342;2023-04-25T02:20:33;7.90;;;6.73;;
8048;SDS011;20935;42.660;23.342;2023-04-25T02:23:19;7.37;;;6.60;;
8048;SDS011;20935;42.660;23.342;2023-04-25T02:26:04;7.77;;;7.00;;
8048;SDS011;20935;42.660;23.342;2023-04-25T02:28:51;8.03;;;7.13;;
8048;SDS011;20935;42.660;23.342;2023-04-25T02:31:36;10.20;;;7.27;;
8048;SDS011;20935;42.660;23.342;2023-04-25T02:34:22;7.23;;;6.53;;
8048;SDS011;20935;42.660;23.342;2023-04-25T02:37:08;8.80;;;7.00;;
8048;SDS011;20935;42.660;23.342;2023-04-25T02:39:54;8.53;;;6.77;;
8048;SDS011;20935;42.660;23.342;2023-04-25T02:42:39;8.73;;;6.97;;
8048;SDS011;20935;42.660;23.342;2023-04-25T02:45:26;8.37;;;6.97;;
8048;SDS011;20935;42.660;23.342;2023-04-25T02:48:12;7.07;;;6.37;;
8048;SDS011;20935;42.660;23.342;2023-04-25T02:50:57;10.70;;;7.43;;
8048;SDS011;20935;42.660;23.342;2023-04-25T02:53:43;8.13;;;6.83;;
8048;SDS011;20935;42.660;23.342;2023-04-25T02:56:28;8.17;;;6.97;;
8048;SDS011;20935;42.660;23.342;2023-04-25T02:59:14;8.17;;;7.23;;
8048;SDS011;20935;42.660;23.342;2023-04-25T03:02:02;9.50;;;7.63;;
8048;SDS011;20935;42.660;23.342;2023-04-25T03:04:47;13.00;;;8.43;;
8048;SDS011;20935;42.660;23.342;2023-04-25T03:07:32;8.20;;;7.17;;
8048;SDS011;20935;42.660;23.342;2023-04-25T03:10:18;8.80;;;7.23;;
8048;SDS011;20935;42.660;23.342;2023-04-25T03:13:03;8.33;;;7.43;;
8048;SDS011;20935;42.660;23.342;2023-04-25T03:15:49;10.63;;;7.93;;
8048;SDS011;20935;42.660;23.342;2023-04-25T03:18:36;9.33;;;7.80;;
8048;SDS011;20935;42.660;23.342;2023-04-25T03:21:21;8.70;;;7.80;;
8048;SDS011;20935;42.660;23.342;2023-04-25T03:24:07;8.87;;;7.50;;
8048;SDS011;20935;42.660;23.342;2023-04-25T03:26:52;10.73;;;7.93;;
8048;SDS011;20935;42.660;23.342;2023-04-25T03:29:38;8.87;;;7.97;;
8048;SDS011;20935;42.660;23.342;2023-04-25T03:32:24;16.30;;;7.77;;
8048;SDS011;20935;42.660;23.342;2023-04-25T03:35:11;10.63;;;8.30;;
8048;SDS011;20935;42.660;23.342;2023-04-25T03:37:57;9.37;;;8.20;;
8048;SDS011;20935;42.660;23.342;2023-04-25T03:40:42;10.40;;;8.13;;
8048;SDS011;20935;42.660;23.342;2023-04-25T03:43:28;9.53;;;8.53;;
8048;SDS011;20935;42.660;23.342;2023-04-25T03:46:13;11.50;;;8.00;;
8048;SDS011;20935;42.660;23.342;2023-04-25T03:48:59;10.30;;;8.73;;
8048;SDS011;20935;42.660;23.342;2023-04-25T03:51:46;8.80;;;7.57;;
8048;SDS011;20935;42.660;23.342;2023-04-25T03:54:31;10.90;;;8.50;;
8048;SDS011;20935;42.660;23.342;2023-04-25T03:57:17;9.70;;;8.13;;
8048;SDS011;20935;42.660;23.342;2023-04-25T04:00:05;10.93;;;9.63;;
8048;SDS011;20935;42.660;23.342;2023-04-25T04:02:51;10.03;;;8.67;;
8048;SDS011;20935;42.660;23.342;2023-04-25T04:05:37;14.73;;;9.33;;
8048;SDS011;20935;42.660;23.342;2023-04-25T04:08:25;8.83;;;7.90;;
8048;SDS011;20935;42.660;23.342;2023-04-25T04:11:11;9.97;;;8.70;;
8048;SDS011;20935;42.660;23.342;2023-04-25T04:13:56;10.47;;;7.80;;
8048;SDS011;20935;42.660;23.342;2023-04-25T04:16:41;10.30;;;8.17;;
8048;SDS011;20935;42.660;23.342;2023-04-25T04:19:27;11.20;;;9.10;;
8048;SDS011;20935;42.660;23.342;2023-04-25T04:22:15;9.53;;;8.30;;
8048;SDS011;20935;42.660;23.342;2023-04-25T04:25:02;9.63;;;7.83;;
8048;SDS011;20935;42.660;23.342;2023-04-25T04:27:49;8.50;;;7.53;;
8048;SDS011;20935;42.660;23.342;2023-04-25T04:30:38;10.27;;;8.37;;
8048;SDS011;20935;42.660;23.342;2023-04-25T04:33:25;9.73;;;8.40;;
8048;SDS011;20935;42.660;23.342;2023-04-25T04:36:10;8.10;;;7.10;;
8048;SDS011;20935;42.660;23.342;2023-04-25T04:38:56;9.10;;;7.30;;
8048;SDS011;20935;42.660;23.342;2023-04-25T04:41:43;8.10;;;7.30;;
8048;SDS011;20935;42.660;23.342;2023-04-25T04:44:29;8.57;;;7.67;;
8048;SDS011;20935;42.660;23.342;2023-04-25T04:47:16;8.40;;;7.57;;
8048;SDS011;20935;42.660;23.342;2023-04-25T04:50:04;8.63;;;7.73;;
8048;SDS011;20935;42.660;23.342;2023-04-25T04:52:51;8.60;;;7.63;;
8048;SDS011;20935;42.660;23.342;2023-04-25T04:55:36;8.57;;;7.67;;
8048;SDS011;20935;42.660;23.342;2023-04-25T04:58:23;8.93;;;8.03;;
8048;SDS011;20935;42.660;23.342;2023-04-25T05:01:09;10.70;;;8.00;;
8048;SDS011;20935;42.660;23.342;2023-04-25T05:03:54;9.23;;;7.70;;
8048;SDS011;20935;42.660;23.342;2023-04-25T05:06:43;9.17;;;8.20;;
8048;SDS011;20935;42.660;23.342;2023-04-25T05:09:29;8.27;;;7.47;;
8048;SDS011;20935;42.660;23.342;2023-04-25T05:12:14;9.37;;;8.03;;
8048;SDS011;20935;42.660;23.342;2023-04-25T05:15:01;9.90;;;8.87;;
8048;SDS011;20935;42.660;23.342;2023-04-25T05:17:46;9.97;;;8.93;;
8048;SDS011;20935;42.660;23.342;2023-04-25T05:20:34;13.50;;;8.80;;
8048;SDS011;20935;42.660;23.342;2023-04-25T05:23:20;11.00;;;9.43;;
8048;SDS011;20935;42.660;23.342;2023-04-25T05:26:05;11.43;;;10.23;;
8048;SDS011;20935;42.660;23.342;2023-04-25T05:28:57;10.93;;;9.47;;
8048;SDS011;20935;42.660;23.342;2023-04-25T05:31:44;11.70;;;10.00;;
8048;SDS011;20935;42.660;23.342;2023-04-25T05:34:29;12.03;;;9.70;;
8048;SDS011;20935;42.660;23.342;2023-04-25T05:37:14;13.23;;;10.57;;
8048;SDS011;20935;42.660;23.342;2023-04-25T05:40:00;15.77;;;10.33;;
8048;SDS011;20935;42.660;23.342;2023-04-25T05:42:48;11.30;;;9.40;;
8048;SDS011;20935;42.660;23.342;2023-04-25T05:45:36;10.43;;;8.97;;
8048;SDS011;20935;42.660;23.342;2023-04-25T05:48:23;12.07;;;9.73;;
8048;SDS011;20935;42.660;23.342;2023-04-25T05:51:08;13.57;;;9.70;;
8048;SDS011;20935;42.660;23.342;2023-04-25T05:53:54;12.10;;;10.77;;
8048;SDS011;20935;42.660;23.342;2023-04-25T05:56:39;10.33;;;9.23;;
8048;SDS011;20935;42.660;23.342;2023-04-25T05:59:25;11.87;;;10.57;;
8048;SDS011;20935;42.660;23.342;2023-04-25T06:02:11;9.97;;;8.97;;
8048;SDS011;20935;42.660;23.342;2023-04-25T06:04:57;9.17;;;8.03;;
8048;SDS011;20935;42.660;23.342;2023-04-25T06:07:43;11.57;;;9.30;;
8048;SDS011;20935;42.660;23.342;2023-04-25T06:10:29;11.50;;;8.13;;
8048;SDS011;20935;42.660;23.342;2023-04-25T06:13:14;14.00;;;8.40;;
8048;SDS011;20935;42.660;23.342;2023-04-25T06:16:00;7.23;;;6.30;;
8048;SDS011;20935;42.660;23.342;2023-04-25T06:18:45;6.63;;;5.90;;
8048;SDS011;20935;42.660;23.342;2023-04-25T06:21:32;8.67;;;6.50;;
8048;SDS011;20935;42.660;23.342;2023-04-25T06:24:18;7.77;;;6.97;;
8048;SDS011;20935;42.660;23.342;2023-04-25T06:27:03;8.83;;;6.87;;
8048;SDS011;20935;42.660;23.342;2023-04-25T06:29:49;8.33;;;7.47;;
8048;SDS011;20935;42.660;23.342;2023-04-25T06:32:35;8.73;;;7.87;;
8048;SDS011;20935;42.660;23.342;2023-04-25T06:35:20;9.03;;;7.00;;
8048;SDS011;20935;42.660;23.342;2023-04-25T06:38:07;8.10;;;7.30;;
8048;SDS011;20935;42.660;23.342;2023-04-25T06:40:53;9.70;;;7.87;;
8048;SDS011;20935;42.660;23.342;2023-04-25T06:43:38;10.03;;;8.30;;
8048;SDS011;20935;42.660;23.342;2023-04-25T06:46:24;11.07;;;7.90;;
8048;SDS011;20935;42.660;23.342;2023-04-25T06:49:09;7.57;;;6.87;;
8048;SDS011;20935;42.660;23.342;2023-04-25T06:51:55;8.50;;;6.90;;
8048;SDS011;20935;42.660;23.342;2023-04-25T06:54:42;9.67;;;7.27;;
8048;SDS011;20935;42.660;23.342;2023-04-25T06:57:27;7.53;;;6.73;;
8048;SDS011;20935;42.660;23.342;2023-04-25T07:00:13;10.63;;;6.83;;
8048;SDS011;20935;42.660;23.342;2023-04-25T07:03:00;7.07;;;6.37;;
8048;SDS011;20935;42.660;23.342;2023-04-25T07:05:45;7.23;;;6.60;;
8048;SDS011;20935;42.660;23.342;2023-04-25T07:08:31;8.27;;;7.47;;
8048;SDS011;20935;42.660;23.342;2023-04-25T07:11:18;10.30;;;7.43;;
8048;SDS011;20935;42.660;23.342;2023-04-25T07:14:03;9.17;;;7.33;;
8048;SDS011;20935;42.660;23.342;2023-04-25T07:16:49;9.87;;;7.00;;
8048;SDS011;20935;42.660;23.342;2023-04-25T07:19:34;8.10;;;5.70;;
8048;SDS011;20935;42.660;23.342;2023-04-25T07:22:21;6.57;;;5.60;;
8048;SDS011;20935;42.660;23.342;2023-04-25T07:25:07;9.53;;;5.40;;
8048;SDS011;20935;42.660;23.342;2023-04-25T07:27:54;5.67;;;5.10;;
8048;SDS011;20935;42.660;23.342;2023-04-25T07:30:40;6.07;;;5.47;;
8048;SDS011;20935;42.660;23.342;2023-04-25T07:33:25;6.57;;;5.60;;
8048;SDS011;20935;42.660;23.342;2023-04-25T07:36:11;8.40;;;5.77;;
8048;SDS011;20935;42.660;23.342;2023-04-25T07:38:56;6.87;;;6.03;;
8048;SDS011;20935;42.660;23.342;2023-04-25T07:41:42;6.20;;;5.60;;
8048;SDS011;20935;42.660;23.342;2023-04-25T07:44:30;8.27;;;5.97;;
8048;SDS011;20935;42.660;23.342;2023-04-25T07:47:18;7.07;;;5.77;;
8048;SDS011;20935;42.660;23.342;2023-04-25T07:50:04;9.43;;;6.40;;
8048;SDS011;20935;42.660;23.342;2023-04-25T07:52:50;6.73;;;5.97;;
8048;SDS011;20935;42.660;23.342;2023-04-25T07:55:36;5.97;;;5.37;;
8048;SDS011;20935;42.660;23.342;2023-04-25T07:58:23;10.77;;;5.87;;
8048;SDS011;20935;42.660;23.342;2023-04-25T08:01:10;6.30;;;5.53;;
8048;SDS011;20935;42.660;23.342;2023-04-25T08:03:56;9.07;;;5.87;;
8048;SDS011;20935;42.660;23.342;2023-04-25T08:06:41;7.13;;;5.97;;
8048;SDS011;20935;42.660;23.342;2023-04-25T08:09:27;8.20;;;7.13;;
8048;SDS011;20935;42.660;23.342;2023-04-25T08:12:13;11.17;;;6.30;;
8048;SDS011;20935;42.660;23.342;2023-04-25T08:14:58;6.67;;;5.77;;
8048;SDS011;20935;42.660;23.342;2023-04-25T08:17:45;7.73;;;5.10;;
8048;SDS011;20935;42.660;23.342;2023-04-25T08:20:30;8.70;;;5.80;;
8048;SDS011;20935;42.660;23.342;2023-04-25T08:23:16;5.60;;;5.10;;
8048;SDS011;20935;42.660;23.342;2023-04-25T08:26:02;7.00;;;5.10;;
8048;SDS011;20935;42.660;23.342;2023-04-25T08:28:48;7.23;;;4.37;;
8048;SDS011;20935;42.660;23.342;2023-04-25T08:31:34;5.77;;;5.27;;
8048;SDS011;20935;42.660;23.342;2023-04-25T08:34:20;8.93;;;4.93;;
8048;SDS011;20935;42.660;23.342;2023-04-25T08:37:06;6.77;;;5.13;;
8048;SDS011;20935;42.660;23.342;2023-04-25T08:39:51;5.17;;;3.73;;
8048;SDS011;20935;42.660;23.342;2023-04-25T08:42:37;5.27;;;3.60;;
8048;SDS011;20935;42.660;23.342;2023-04-25T08:45:24;7.10;;;5.47;;
8048;SDS011;20935;42.660;23.342;2023-04-25T08:48:12;12.10;;;4.90;;
8048;SDS011;20935;42.660;23.342;2023-04-25T08:51:01;4.20;;;3.20;;
8048;SDS011;20935;42.660;23.342;2023-04-25T08:53:47;5.13;;;3.53;;
8048;SDS011;20935;42.660;23.342;2023-04-25T08:56:35;3.73;;;3.33;;
8048;SDS011;20935;42.660;23.342;2023-04-25T08:59:22;8.00;;;5.37;;
8048;SDS011;20935;42.660;23.342;2023-04-25T09:02:08;9.27;;;6.50;;
8048;SDS011;20935;42.660;23.342;2023-04-25T09:04:58;9.17;;;6.43;;
8048;SDS011;20935;42.660;23.342;2023-04-25T09:07:45;8.53;;;6.47;;
8048;SDS011;20935;42.660;23.342;2023-04-25T09:10:30;8.70;;;7.43;;
8048;SDS011;20935;42.660;23.342;2023-04-25T09:13:24;9.23;;;7.60;;
8048;SDS011;20935;42.660;23.342;2023-04-25T09:16:10;9.93;;;6.23;;
8048;SDS011;20935;42.660;23.342;2023-04-25T09:18:56;9.93;;;5.63;;
8048;SDS011;20935;42.660;23.342;2023-04-25T09:21:41;7.50;;;6.07;;
8048;SDS011;20935;42.660;23.342;2023-04-25T09:24:35;5.83;;;5.17;;
8048;SDS011;20935;42.660;23.342;2023-04-25T09:27:22;7.87;;;5.93;;
8048;SDS011;20935;42.660;23.342;2023-04-25T09:30:09;7.50;;;5.97;;
8048;SDS011;20935;42.660;23.342;2023-04-25T09:32:56;8.30;;;6.60;;
8048;SDS011;20935;42.660;23.342;2023-04-25T09:35:42;8.13;;;6.23;;
8048;SDS011;20935;42.660;23.342;2023-04-25T09:38:29;10.67;;;6.67;;
8048;SDS011;20935;42.660;23.342;2023-04-25T09:41:22;9.80;;;5.77;;
8048;SDS011;20935;42.660;23.342;2023-04-25T09:44:08;7.63;;;5.60;;
8048;SDS011;20935;42.660;23.342;2023-04-25T09:46:57;9.77;;;7.07;;
8048;SDS011;20935;42.660;23.342;2023-04-25T09:49:43;11.63;;;7.33;;
8048;SDS011;20935;42.660;23.342;2023-04-25T09:52:29;8.47;;;7.13;;
8048;SDS011;20935;42.660;23.342;2023-04-25T09:55:14;8.50;;;6.93;;
8048;SDS011;20935;42.660;23.342;2023-04-25T09:58:03;7.90;;;7.13;;
8048;SDS011;20935;42.660;23.342;2023-04-25T10:00:50;8.60;;;5.37;;
8048;SDS011;20935;42.660;23.342;2023-04-25T10:03:37;6.30;;;5.03;;
8048;SDS011;20935;42.660;23.342;2023-04-25T10:06:24;7.03;;;5.90;;
8048;SDS011;20935;42.660;23.342;2023-04-25T10:09:12;9.13;;;6.17;;
8048;SDS011;20935;42.660;23.342;2023-04-25T10:11:58;8.13;;;6.70;;
8048;SDS011;20935;42.660;23.342;2023-04-25T10:14:46;8.83;;;6.67;;
8048;SDS011;20935;42.660;23.342;2023-04-25T10:17:32;10.00;;;7.27;;
8048;SDS011;20935;42.660;23.342;2023-04-25T10:20:18;11.57;;;6.77;;
8048;SDS011;20935;42.660;23.342;2023-04-25T10:23:06;5.83;;;3.83;;
8048;SDS011;20935;42.660;23.342;2023-04-25T10:25:58;3.60;;;2.40;;
8048;SDS011;20935;42.660;23.342;2023-04-25T10:28:57;1.70;;;1.60;;
8048;SDS011;20935;42.660;23.342;2023-04-25T10:31:46;1.73;;;1.60;;
8048;SDS011;20935;42.660;23.342;2023-04-25T10:34:41;1.60;;;1.50;;
8048;SDS011;20935;42.660;23.342;2023-04-25T10:37:30;1.80;;;1.70;;
8048;SDS011;20935;42.660;23.342;2023-04-25T10:40:16;1.83;;;1.63;;
8048;SDS011;20935;42.660;23.342;2023-04-25T10:46:21;1.53;;;1.43;;
8048;SDS011;20935;42.660;23.342;2023-04-25T10:49:09;2.17;;;1.60;;
8048;SDS011;20935;42.660;23.342;2023-04-25T10:54:56;2.60;;;1.70;;
8048;SDS011;20935;42.660;23.342;2023-04-25T10:57:42;2.27;;;1.80;;
8048;SDS011;20935;42.660;23.342;2023-04-25T11:00:30;3.30;;;1.80;;
8048;SDS011;20935;42.660;23.342;2023-04-25T11:03:17;1.70;;;1.60;;
8048;SDS011;20935;42.660;23.342;2023-04-25T11:06:10;2.20;;;1.50;;
8048;SDS011;20935;42.660;23.342;2023-04-25T11:09:08;2.83;;;1.80;;
8048;SDS011;20935;42.660;23.342;2023-04-25T11:11:57;2.33;;;2.00;;
8048;SDS011;20935;42.660;23.342;2023-04-25T11:14:44;2.43;;;1.70;;
8048;SDS011;20935;42.660;23.342;2023-04-25T11:17:30;4.00;;;1.50;;
8048;SDS011;20935;42.660;23.342;2023-04-25T11:20:15;1.70;;;1.60;;
8048;SDS011;20935;42.660;23.342;2023-04-25T11:23:02;1.63;;;1.50;;
8048;SDS011;20935;42.660;23.342;2023-04-25T11:25:47;2.10;;;1.53;;
8048;SDS011;20935;42.660;23.342;2023-04-25T11:28:34;2.00;;;1.87;;
8048;SDS011;20935;42.660;23.342;2023-04-25T11:31:20;3.83;;;2.60;;
8048;SDS011;20935;42.660;23.342;2023-04-25T11:34:06;4.47;;;2.80;;
8048;SDS011;20935;42.660;23.342;2023-04-25T11:36:51;3.00;;;2.70;;
8048;SDS011;20935;42.660;23.342;2023-04-25T11:39:39;2.70;;;2.50;;
8048;SDS011;20935;42.660;23.342;2023-04-25T11:42:28;4.93;;;2.33;;
8048;SDS011;20935;42.660;23.342;2023-04-25T11:45:15;2.77;;;2.40;;
8048;SDS011;20935;42.660;23.342;2023-04-25T11:48:02;1.63;;;1.53;;
8048;SDS011;20935;42.660;23.342;2023-04-25T11:50:48;3.47;;;1.60;;
8048;SDS011;20935;42.660;23.342;2023-04-25T11:53:34;2.57;;;1.70;;
8048;SDS011;20935;42.660;23.342;2023-04-25T11:56:21;1.60;;;1.50;;
8048;SDS011;20935;42.660;23.342;2023-04-25T11:59:07;1.40;;;1.30;;
8048;SDS011;20935;42.660;23.342;2023-04-25T12:01:52;1.50;;;1.40;;
8048;SDS011;20935;42.660;23.342;2023-04-25T12:04:38;1.50;;;1.40;;
8048;SDS011;20935;42.660;23.342;2023-04-25T12:07:28;2.17;;;1.50;;
8048;SDS011;20935;42.660;23.342;2023-04-25T12:10:14;2.40;;;1.87;;
8048;SDS011;20935;42.660;23.342;2023-04-25T12:13:17;2.70;;;1.70;;
8048;SDS011;20935;42.660;23.342;2023-04-25T12:16:03;2.10;;;1.90;;
8048;SDS011;20935;42.660;23.342;2023-04-25T12:18:51;3.33;;;2.60;;
8048;SDS011;20935;42.660;23.342;2023-04-25T12:21:36;2.27;;;2.03;;
8048;SDS011;20935;42.660;23.342;2023-04-25T12:24:22;2.70;;;2.50;;
8048;SDS011;20935;42.660;23.342;2023-04-25T12:27:09;2.63;;;2.20;;
8048;SDS011;20935;42.660;23.342;2023-04-25T12:29:56;2.77;;;1.80;;
8048;SDS011;20935;42.660;23.342;2023-04-25T12:32:42;2.47;;;1.90;;
8048;SDS011;20935;42.660;23.342;2023-04-25T12:35:27;2.80;;;2.00;;
8048;SDS011;20935;42.660;23.342;2023-04-25T12:38:19;2.00;;;1.83;;
8048;SDS011;20935;42.660;23.342;2023-04-25T12:41:06;1.53;;;1.43;;
8048;SDS011;20935;42.660;23.342;2023-04-25T12:43:51;6.57;;;2.03;;
8048;SDS011;20935;42.660;23.342;2023-04-25T12:46:38;2.57;;;2.37;;
8048;SDS011;20935;42.660;23.342;2023-04-25T12:49:24;2.67;;;2.00;;
8048;SDS011;20935;42.660;23.342;2023-04-25T12:52:10;5.43;;;2.17;;
8048;SDS011;20935;42.660;23.342;2023-04-25T12:54:55;2.80;;;2.13;;
8048;SDS011;20935;42.660;23.342;2023-04-25T12:57:41;2.50;;;2.30;;
8048;SDS011;20935;42.660;23.342;2023-04-25T13:00:26;3.27;;;2.17;;
8048;SDS011;20935;42.660;23.342;2023-04-25T13:03:14;3.30;;;2.37;;
8048;SDS011;20935;42.660;23.342;2023-04-25T13:06:00;3.90;;;2.20;;
8048;SDS011;20935;42.660;23.342;2023-04-25T13:08:45;4.87;;;2.10;;
8048;SDS011;20935;42.660;23.342;2023-04-25T13:11:30;2.00;;;1.90;;
8048;SDS011;20935;42.660;23.342;2023-04-25T13:14:16;2.43;;;1.70;;
8048;SDS011;20935;42.660;23.342;2023-04-25T13:17:02;1.93;;;1.60;;
8048;SDS011;20935;42.660;23.342;2023-04-25T13:19:49;3.03;;;1.90;;
8048;SDS011;20935;42.660;23.342;2023-04-25T13:22:35;3.40;;;2.20;;
8048;SDS011;20935;42.660;23.342;2023-04-25T13:25:21;3.83;;;2.67;;
8048;SDS011;20935;42.660;23.342;2023-04-25T13:28:06;4.90;;;3.87;;
8048;SDS011;20935;42.660;23.342;2023-04-25T13:30:52;6.97;;;4.37;;
8048;SDS011;20935;42.660;23.342;2023-04-25T13:33:37;5.10;;;4.07;;
8048;SDS011;20935;42.660;23.342;2023-04-25T13:36:25;6.10;;;3.00;;
8048;SDS011;20935;42.660;23.342;2023-04-25T13:39:11;3.37;;;2.93;;
8048;SDS011;20935;42.660;23.342;2023-04-25T13:42:00;6.03;;;2.90;;
8048;SDS011;20935;42.660;23.342;2023-04-25T13:44:45;2.80;;;2.60;;
8048;SDS011;20935;42.660;23.342;2023-04-25T13:47:31;4.63;;;2.67;;
8048;SDS011;20935;42.660;23.342;2023-04-25T13:50:16;2.93;;;2.57;;
8048;SDS011;20935;42.660;23.342;2023-04-25T13:53:03;2.60;;;2.40;;
8048;SDS011;20935;42.660;23.342;2023-04-25T13:55:49;2.87;;;2.53;;
8048;SDS011;20935;42.660;23.342;2023-04-25T13:58:35;4.10;;;2.77;;
8048;SDS011;20935;42.660;23.342;2023-04-25T14:01:20;12.83;;;3.80;;
8048;SDS011;20935;42.660;23.342;2023-04-25T14:04:06;2.97;;;2.40;;
8048;SDS011;20935;42.660;23.342;2023-04-25T14:06:52;3.20;;;2.37;;
8048;SDS011;20935;42.660;23.342;2023-04-25T14:09:39;2.50;;;2.30;;
8048;SDS011;20935;42.660;23.342;2023-04-25T14:12:24;2.10;;;2.00;;
8048;SDS011;20935;42.660;23.342;2023-04-25T14:15:10;2.23;;;2.00;;
8048;SDS011;20935;42.660;23.342;2023-04-25T14:17:55;1.80;;;1.70;;
8048;SDS011;20935;42.660;23.342;2023-04-25T14:20:41;2.13;;;1.90;;
8048;SDS011;20935;42.660;23.342;2023-04-25T14:23:26;1.67;;;1.50;;
8048;SDS011;20935;42.660;23.342;2023-04-25T14:26:14;1.50;;;1.40;;
8048;SDS011;20935;42.660;23.342;2023-04-25T14:28:59;1.90;;;1.80;;
8048;SDS011;20935;42.660;23.342;2023-04-25T14:31:45;2.03;;;1.63;;
8048;SDS011;20935;42.660;23.342;2023-04-25T14:34:30;2.10;;;1.73;;
8048;SDS011;20935;42.660;23.342;2023-04-25T14:37:16;1.60;;;1.50;;
8048;SDS011;20935;42.660;23.342;2023-04-25T14:40:01;1.90;;;1.80;;
8048;SDS011;20935;42.660;23.342;2023-04-25T14:42:48;1.70;;;1.60;;
8048;SDS011;20935;42.660;23.342;2023-04-25T14:45:33;2.90;;;1.90;;
8048;SDS011;20935;42.660;23.342;2023-04-25T14:48:19;2.10;;;1.73;;
8048;SDS011;20935;42.660;23.342;2023-04-25T14:51:05;2.30;;;2.10;;
8048;SDS011;20935;42.660;23.342;2023-04-25T14:53:50;2.40;;;2.10;;
8048;SDS011;20935;42.660;23.342;2023-04-25T14:56:36;2.07;;;1.90;;
8048;SDS011;20935;42.660;23.342;2023-04-25T14:59:22;3.63;;;2.23;;
8048;SDS011;20935;42.660;23.342;2023-04-25T15:02:08;2.27;;;2.00;;
8048;SDS011;20935;42.660;23.342;2023-04-25T15:04:53;2.40;;;2.20;;
8048;SDS011;20935;42.660;23.342;2023-04-25T15:07:39;2.30;;;2.10;;
8048;SDS011;20935;42.660;23.342;2023-04-25T15:10:25;2.33;;;2.13;;
8048;SDS011;20935;42.660;23.342;2023-04-25T15:13:10;2.40;;;2.20;;
8048;SDS011;20935;42.660;23.342;2023-04-25T15:15:57;2.50;;;2.30;;
8048;SDS011;20935;42.660;23.342;2023-04-25T15:18:43;2.60;;;2.40;;
8048;SDS011;20935;42.660;23.342;2023-04-25T15:21:28;3.60;;;2.43;;
8048;SDS011;20935;42.660;23.342;2023-04-25T15:24:14;2.40;;;2.20;;
8048;SDS011;20935;42.660;23.342;2023-04-25T15:27:00;2.37;;;2.17;;
8048;SDS011;20935;42.660;23.342;2023-04-25T15:29:46;2.37;;;2.17;;
8048;SDS011;20935;42.660;23.342;2023-04-25T15:32:33;3.43;;;3.13;;
8048;SDS011;20935;42.660;23.342;2023-04-25T15:35:18;5.00;;;3.17;;
8048;SDS011;20935;42.660;23.342;2023-04-25T15:38:04;4.40;;;2.30;;
8048;SDS011;20935;42.660;23.342;2023-04-25T15:40:49;3.10;;;2.80;;
8048;SDS011;20935;42.660;23.342;2023-04-25T15:43:37;2.87;;;2.57;;
8048;SDS011;20935;42.660;23.342;2023-04-25T15:46:23;3.73;;;2.57;;
8048;SDS011;20935;42.660;23.342;2023-04-25T15:49:10;2.77;;;2.20;;
8048;SDS011;20935;42.660;23.342;2023-04-25T15:51:56;3.73;;;2.67;;
8048;SDS011;20935;42.660;23.342;2023-04-25T15:54:41;2.70;;;2.50;;
8048;SDS011;20935;42.660;23.342;2023-04-25T15:57:27;3.50;;;2.70;;
8048;SDS011;20935;42.660;23.342;2023-04-25T16:00:13;4.47;;;3.10;;
8048;SDS011;20935;42.660;23.342;2023-04-25T16:03:00;2.60;;;2.33;;
8048;SDS011;20935;42.660;23.342;2023-04-25T16:05:47;3.37;;;2.70;;
8048;SDS011;20935;42.660;23.342;2023-04-25T16:08:34;4.03;;;3.60;;
8048;SDS011;20935;42.660;23.342;2023-04-25T16:11:19;4.73;;;3.10;;
8048;SDS011;20935;42.660;23.342;2023-04-25T16:14:04;3.43;;;2.90;;
8048;SDS011;20935;42.660;23.342;2023-04-25T16:16:51;4.83;;;3.17;;
8048;SDS011;20935;42.660;23.342;2023-04-25T16:19:36;4.17;;;3.33;;
8048;SDS011;20935;42.660;23.342;2023-04-25T16:22:23;6.07;;;3.13;;
8048;SDS011;20935;42.660;23.342;2023-04-25T16:25:09;2.73;;;2.20;;
8048;SDS011;20935;42.660;23.342;2023-04-25T16:27:55;3.00;;;2.10;;
8048;SDS011;20935;42.660;23.342;2023-04-25T16:30:41;2.43;;;2.03;;
8048;SDS011;20935;42.660;23.342;2023-04-25T16:33:26;2.67;;;1.90;;
8048;SDS011;20935;42.660;23.342;2023-04-25T16:36:12;2.33;;;1.70;;
8048;SDS011;20935;42.660;23.342;2023-04-25T16:38:59;2.33;;;2.10;;
8048;SDS011;20935;42.660;23.342;2023-04-25T16:41:44;2.23;;;2.03;;
8048;SDS011;20935;42.660;23.342;2023-04-25T16:44:30;3.33;;;2.40;;
8048;SDS011;20935;42.660;23.342;2023-04-25T16:47:15;2.73;;;2.40;;